Taylor, North Dakota
Current Conditions -  °F | °C
As of 8:56 PM on Thursday 18 Dec 2014 (Local Time) from KDIK Reporting Station
Clear Clear  
Wind Chill: 17°   Ceiling: Unl
Heat Index: 24°   Visibility: 10mi
Dew Point: 20°   Wind: 6mph
Humidity: 84%   Direction: 210°SSW
Pressure: 29.91"   Gusts: NA
Location:  46.9°N, 102.43°W
Report Text: KDIK 190356Z AUTO 21005KT 10SM CLR M04/M07 A2991 RMK AO2 SLP164 I1000 T10441067
Loading
Personal Weather Stations






























Interactive Weather Map New forecast layout! Learn more

10-Day Weather Forecast

Advertisements
Track Severe Weather on mobile